Time;durP1;ratioP1;P1;durP2;ratioP2;P2;SDS_P1;SDS_P2;PMS_P1;PMS_P2;Temp;Humidity;BMP_temperature;BMP_pressure;BME280_temperature;BME280_humidity;BME280_pressure;Samples;Min_cycle;Max_cycle;Signal;HPM_P1;HPM_P2
2023/03/03 00:00:00;;;;;;;422.70;38.78;;;2.40;1.00;;;;;;4993653;28;20187;-63
2023/03/03 00:02:26;;;;;;;608.38;44.40;;;2.50;1.00;;;;;;4993475;28;20057;-62
2023/03/03 00:04:51;;;;;;;477.10;38.20;;;2.50;1.00;;;;;;5008757;28;20052;-62
2023/03/03 00:07:21;;;;;;;510.77;38.13;;;2.30;1.00;;;;;;4974252;28;20365;-62
2023/03/03 00:09:48;;;;;;;546.25;39.78;;;2.60;1.00;;;;;;4980048;28;20138;-62
2023/03/03 00:12:24;;;;;;;621.33;42.92;;;2.50;1.00;;;;;;4975259;28;20056;-62
2023/03/03 00:14:49;;;;;;;601.13;42.80;;;2.40;1.00;;;;;;4977173;28;20397;-62
2023/03/03 00:17:20;;;;;;;487.27;39.55;;;2.20;1.00;;;;;;4978656;28;20053;-62
2023/03/03 00:19:46;;;;;;;204.43;29.80;;;2.40;1.00;;;;;;4980755;28;20046;-62
2023/03/03 00:22:35;;;;;;;428.63;36.45;;;2.30;1.00;;;;;;4976027;28;20058;-62
2023/03/03 00:25:29;;;;;;;441.80;37.90;;;2.30;1.00;;;;;;4976547;28;20084;-62
2023/03/03 00:27:55;;;;;;;543.70;39.70;;;2.10;1.00;;;;;;5008520;28;20046;-63
2023/03/03 00:30:26;;;;;;;676.00;43.47;;;2.30;1.00;;;;;;4977450;28;20455;-63
2023/03/03 00:32:55;;;;;;;510.73;39.42;;;2.20;1.00;;;;;;4976314;28;20104;-63
2023/03/03 00:35:34;;;;;;;581.78;43.55;;;2.30;1.00;;;;;;4977823;28;20078;-63
2023/03/03 00:38:09;;;;;;;399.38;35.78;;;2.30;1.00;;;;;;5008335;28;20571;-62
2023/03/03 00:40:36;;;;;;;839.15;49.83;;;2.10;1.00;;;;;;4976184;28;20066;-63
2023/03/03 00:43:20;;;;;;;670.67;45.45;;;2.10;1.00;;;;;;4975846;28;20046;-64
2023/03/03 00:45:51;;;;;;;626.28;43.83;;;2.10;1.00;;;;;;4979318;28;20045;-63
2023/03/03 00:48:22;;;;;;;399.45;35.03;;;1.90;1.00;;;;;;5008677;28;20121;-63
2023/03/03 00:50:48;;;;;;;415.98;34.30;;;1.90;1.00;;;;;;4989370;28;20057;-64
2023/03/03 00:53:16;;;;;;;405.33;36.30;;;2.00;1.00;;;;;;4977785;28;20536;-63
2023/03/03 00:55:42;;;;;;;294.77;29.35;;;1.70;1.00;;;;;;4977575;28;20038;-64
2023/03/03 00:58:09;;;;;;;372.17;34.38;;;1.50;1.00;;;;;;4974029;28;20125;-63
2023/03/03 01:00:35;;;;;;;323.20;32.17;;;1.50;1.00;;;;;;4991040;28;20337;-63
2023/03/03 01:03:06;;;;;;;541.45;37.78;;;1.30;99.90;;;;;;4992979;28;20526;-62
2023/03/03 01:05:33;;;;;;;372.30;33.03;;;1.00;99.90;;;;;;4991259;28;20306;-63
2023/03/03 01:07:59;;;;;;;377.73;32.10;;;1.00;99.90;;;;;;5006328;28;20467;-62
2023/03/03 01:10:27;;;;;;;297.08;29.98;;;1.00;99.90;;;;;;4973981;28;20185;-63
2023/03/03 01:12:53;;;;;;;297.27;30.38;;;0.70;99.90;;;;;;4990517;28;20050;-63
2023/03/03 01:15:20;;;;;;;197.98;28.25;;;0.60;99.90;;;;;;4982812;28;20038;-62
2023/03/03 01:17:45;;;;;;;144.77;25.90;;;0.60;99.90;;;;;;4989604;28;20039;-63
2023/03/03 01:20:13;;;;;;;192.20;29.05;;;0.50;99.90;;;;;;4990426;28;20061;-63
2023/03/03 01:22:39;;;;;;;222.18;29.02;;;0.20;99.90;;;;;;4993984;28;20389;-62
2023/03/03 01:25:06;;;;;;;194.75;27.80;;;0.10;99.90;;;;;;4975425;28;20046;-62
2023/03/03 01:27:33;;;;;;;203.93;27.98;;;-0.10;99.90;;;;;;4973720;28;20306;-62
2023/03/03 01:29:59;;;;;;;201.27;27.90;;;-0.20;99.90;;;;;;4976540;28;20475;-63
2023/03/03 01:32:25;;;;;;;188.68;27.65;;;-0.20;99.90;;;;;;5009578;28;20042;-63
2023/03/03 01:34:51;;;;;;;294.05;30.50;;;-0.30;99.90;;;;;;4990621;28;20088;-63
2023/03/03 01:37:16;;;;;;;358.48;31.23;;;-0.30;99.90;;;;;;4973235;28;20034;-63
2023/03/03 01:39:42;;;;;;;299.30;32.60;;;-0.60;99.90;;;;;;5006891;28;20046;-63
2023/03/03 01:42:08;;;;;;;204.23;29.13;;;-0.60;99.90;;;;;;4975313;28;20193;-63
2023/03/03 01:44:34;;;;;;;189.10;28.13;;;-0.70;99.90;;;;;;4973492;28;20046;-64
2023/03/03 01:47:21;;;;;;;191.93;27.98;;;-0.60;99.90;;;;;;5005671;28;20038;-63
2023/03/03 01:50:02;;;;;;;175.10;27.50;;;-0.70;99.90;;;;;;4973366;28;20045;-64
2023/03/03 01:52:42;;;;;;;152.52;25.02;;;-0.70;99.90;;;;;;5010973;28;20089;-63
2023/03/03 01:55:20;;;;;;;146.82;24.80;;;-0.80;99.90;;;;;;4978243;28;20599;-64
2023/03/03 01:57:55;;;;;;;108.85;24.05;;;-0.90;99.90;;;;;;4981223;28;20206;-62
2023/03/03 02:00:21;;;;;;;93.63;24.90;;;-0.90;99.90;;;;;;4982520;28;20389;-63
2023/03/03 02:02:48;;;;;;;74.25;23.02;;;-1.00;99.90;;;;;;5015387;28;20042;-63
2023/03/03 02:05:15;;;;;;;69.47;22.75;;;-0.90;99.90;;;;;;4980656;28;20416;-64
2023/03/03 02:07:41;;;;;;;74.13;23.27;;;-1.00;99.90;;;;;;5008829;28;20116;-63
2023/03/03 02:10:15;;;;;;;61.90;22.85;;;-1.00;99.90;;;;;;4981433;28;20145;-64
2023/03/03 02:12:49;;;;;;;63.75;24.17;;;-1.00;99.90;;;;;;4980010;28;20100;-64
2023/03/03 02:15:21;;;;;;;62.97;23.48;;;-1.10;99.90;;;;;;4978929;28;20096;-64
2023/03/03 02:17:49;;;;;;;61.55;22.38;;;-1.00;99.90;;;;;;4976409;28;20144;-64
2023/03/03 02:20:34;;;;;;;65.05;22.42;;;-1.10;99.90;;;;;;4993489;28;20523;-62
2023/03/03 02:23:09;;;;;;;62.45;22.83;;;-1.20;99.90;;;;;;4982849;28;20050;-61
2023/03/03 02:25:48;;;;;;;58.05;21.60;;;-1.30;99.90;;;;;;4979695;28;20559;-63
2023/03/03 02:28:14;;;;;;;58.42;22.10;;;-1.20;99.90;;;;;;4993800;28;20100;-63
2023/03/03 02:30:40;;;;;;;56.33;21.60;;;-1.10;99.90;;;;;;4993547;28;20231;-63
2023/03/03 02:33:06;;;;;;;51.65;21.10;;;-1.20;99.90;;;;;;4980459;28;20042;-62
2023/03/03 02:35:35;;;;;;;49.30;21.52;;;-1.30;99.90;;;;;;4980322;28;20448;-62
2023/03/03 02:38:20;;;;;;;58.85;23.00;;;-1.30;99.90;;;;;;4979196;28;20034;-62
2023/03/03 02:41:11;;;;;;;52.72;22.45;;;-1.30;99.90;;;;;;4983860;28;20403;-62
2023/03/03 02:43:56;;;;;;;59.97;22.30;;;-1.30;99.90;;;;;;4981462;28;20250;-62
2023/03/03 02:46:22;;;;;;;57.95;22.05;;;-1.30;99.90;;;;;;4977299;28;21095;-64
2023/03/03 02:48:48;;;;;;;57.33;23.05;;;-1.40;99.90;;;;;;4977767;28;20042;-63
2023/03/03 02:51:13;;;;;;;51.38;21.67;;;-1.40;99.90;;;;;;4977705;28;20053;-62
2023/03/03 02:53:39;;;;;;;59.78;22.40;;;-1.40;99.90;;;;;;4994500;28;20121;-62
2023/03/03 02:56:08;;;;;;;62.47;22.83;;;-1.50;99.90;;;;;;5010106;28;20532;-64
2023/03/03 02:58:37;;;;;;;55.17;22.00;;;-1.40;99.90;;;;;;4978233;28;20054;-65
2023/03/03 03:01:03;;;;;;;57.58;22.38;;;-1.40;99.90;;;;;;4994911;28;20089;-62
2023/03/03 03:03:29;;;;;;;46.90;21.15;;;-1.50;99.90;;;;;;4995920;28;20053;-63
2023/03/03 03:05:55;;;;;;;53.50;21.85;;;-1.50;99.90;;;;;;4978928;28;20046;-63
2023/03/03 03:08:21;;;;;;;57.22;22.90;;;-1.40;99.90;;;;;;4978577;28;20034;-61
2023/03/03 03:10:47;;;;;;;49.88;21.13;;;-1.50;99.90;;;;;;4976768;28;20072;-61
2023/03/03 03:13:12;;;;;;;61.42;22.55;;;-1.40;99.90;;;;;;4978167;28;20111;-62
2023/03/03 03:15:38;;;;;;;57.55;23.20;;;-1.50;99.90;;;;;;5011856;28;20512;-63
2023/03/03 03:18:04;;;;;;;51.50;21.92;;;-1.50;99.90;;;;;;4980762;28;20597;-62
2023/03/03 03:20:30;;;;;;;58.70;22.58;;;-1.50;99.90;;;;;;4995336;28;20105;-65
2023/03/03 03:22:55;;;;;;;57.72;22.75;;;-1.50;99.90;;;;;;4993676;28;20084;-65
2023/03/03 03:25:21;;;;;;;57.42;23.33;;;-1.40;99.90;;;;;;4978758;28;20050;-64
2023/03/03 03:27:47;;;;;;;61.22;23.45;;;-1.40;99.90;;;;;;4978894;28;20717;-61
2023/03/03 03:30:13;;;;;;;61.42;23.50;;;-1.50;99.90;;;;;;4978890;28;20561;-63
2023/03/03 03:32:39;;;;;;;69.18;24.92;;;-1.50;99.90;;;;;;5009772;28;20523;-63
2023/03/03 03:35:05;;;;;;;67.60;24.80;;;-1.50;99.90;;;;;;4995026;28;20483;-63
2023/03/03 03:37:31;;;;;;;65.40;23.48;;;-1.50;99.90;;;;;;4991054;28;20137;-64
2023/03/03 03:39:56;;;;;;;66.72;25.20;;;-1.60;99.90;;;;;;4992629;28;20048;-63
2023/03/03 03:42:22;;;;;;;69.63;25.02;;;-1.50;99.90;;;;;;4993922;28;20117;-63
2023/03/03 03:44:49;;;;;;;71.03;24.45;;;-1.60;99.90;;;;;;5009454;28;20038;-64
2023/03/03 03:47:15;;;;;;;71.35;25.48;;;-1.50;99.90;;;;;;5009402;28;20136;-64
2023/03/03 03:49:41;;;;;;;69.32;24.08;;;-1.50;99.90;;;;;;5008763;28;20048;-64
2023/03/03 03:52:07;;;;;;;63.40;23.80;;;-1.60;99.90;;;;;;5008395;28;20042;-63
2023/03/03 03:54:32;;;;;;;61.72;24.58;;;-1.60;99.90;;;;;;5007298;28;20582;-63
2023/03/03 03:56:58;;;;;;;55.78;23.63;;;-1.60;99.90;;;;;;4974731;28;20413;-63
2023/03/03 03:59:24;;;;;;;62.97;24.15;;;-1.60;99.90;;;;;;4974658;28;20041;-63
2023/03/03 04:01:50;;;;;;;56.28;23.05;;;-1.50;99.90;;;;;;5009405;28;20056;-64
2023/03/03 04:04:16;;;;;;;51.53;22.88;;;-1.60;99.90;;;;;;4976595;28;20046;-63
2023/03/03 04:06:42;;;;;;;57.30;23.73;;;-1.60;99.90;;;;;;5009928;28;20447;-63
2023/03/03 04:09:07;;;;;;;56.97;23.23;;;-1.70;99.90;;;;;;5006589;28;20046;-64
2023/03/03 04:11:33;;;;;;;50.13;21.92;;;-1.60;99.90;;;;;;4976828;28;20290;-64
2023/03/03 04:13:59;;;;;;;49.35;21.75;;;-1.60;99.90;;;;;;4992160;28;20046;-63
2023/03/03 04:16:25;;;;;;;47.53;21.40;;;-1.60;99.90;;;;;;4990275;28;20125;-64
2023/03/03 04:18:51;;;;;;;43.35;20.33;;;-1.60;99.90;;;;;;4993363;28;20041;-65
2023/03/03 04:21:16;;;;;;;45.22;20.75;;;-1.80;99.90;;;;;;4990832;28;20058;-64
2023/03/03 04:23:42;;;;;;;49.33;20.77;;;-1.80;99.90;;;;;;4971847;28;20594;-63
2023/03/03 04:26:08;;;;;;;42.45;19.90;;;-1.80;99.90;;;;;;4975003;28;20532;-63
2023/03/03 04:28:34;;;;;;;45.13;20.83;;;-1.90;99.90;;;;;;4976697;28;20061;-64
2023/03/03 04:30:59;;;;;;;41.65;20.38;;;-1.90;99.90;;;;;;5008014;28;20141;-63
2023/03/03 04:33:25;;;;;;;44.85;20.85;;;-1.80;99.90;;;;;;5010016;28;20510;-65
2023/03/03 04:35:51;;;;;;;40.55;19.48;;;-1.70;99.90;;;;;;4975965;28;20124;-64
2023/03/03 04:38:17;;;;;;;41.75;19.30;;;-1.70;99.90;;;;;;4956143;28;20080;-64
2023/03/03 04:40:43;;;;;;;40.55;19.80;;;-1.70;99.90;;;;;;5006600;28;20057;-63
2023/03/03 04:43:09;;;;;;;42.90;20.10;;;-2.00;99.90;;;;;;4975618;28;20049;-63
2023/03/03 04:45:35;;;;;;;40.45;19.92;;;-2.00;99.90;;;;;;4976923;28;20064;-64
2023/03/03 04:48:01;;;;;;;41.20;19.52;;;-2.10;99.90;;;;;;4976290;28;20058;-64
2023/03/03 04:50:27;;;;;;;41.97;20.15;;;-2.10;99.90;;;;;;4975152;28;20125;-64
2023/03/03 04:52:53;;;;;;;42.15;19.38;;;-1.70;99.90;;;;;;4974263;28;20049;-63
2023/03/03 04:55:18;;;;;;;37.50;19.02;;;-1.80;99.90;;;;;;4978454;28;20450;-62
2023/03/03 04:57:44;;;;;;;43.65;20.08;;;-1.90;99.90;;;;;;4975791;28;20070;-62
2023/03/03 05:00:12;;;;;;;37.40;19.38;;;-2.10;99.90;;;;;;5008996;28;20046;-62
2023/03/03 05:02:38;;;;;;;40.40;19.80;;;-2.10;99.90;;;;;;4996305;28;20053;-64
2023/03/03 05:05:05;;;;;;;40.03;19.40;;;-2.10;99.90;;;;;;4974949;28;20061;-62
2023/03/03 05:07:31;;;;;;;36.70;18.77;;;-1.90;99.90;;;;;;4972810;28;20497;-63
2023/03/03 05:09:57;;;;;;;43.30;20.52;;;-2.00;99.90;;;;;;4956911;28;20050;-63
2023/03/03 05:12:23;;;;;;;40.42;19.45;;;-2.10;99.90;;;;;;4973438;28;20590;-63
2023/03/03 05:14:49;;;;;;;37.45;18.95;;;-1.90;99.90;;;;;;4973884;28;20042;-64
2023/03/03 05:17:15;;;;;;;34.08;17.52;;;-2.00;99.90;;;;;;5007253;28;20046;-63
2023/03/03 05:19:41;;;;;;;33.03;18.27;;;-2.20;99.90;;;;;;4957105;28;20034;-65
2023/03/03 05:22:06;;;;;;;37.08;19.05;;;-2.10;99.90;;;;;;5005514;28;20054;-64
2023/03/03 05:24:32;;;;;;;36.90;18.55;;;-2.10;99.90;;;;;;4975988;28;20046;-63
2023/03/03 05:26:58;;;;;;;39.75;19.50;;;-1.90;99.90;;;;;;5005516;28;20073;-63
2023/03/03 05:29:24;;;;;;;37.13;17.55;;;-2.10;99.90;;;;;;4973952;28;20053;-64
2023/03/03 05:31:50;;;;;;;36.13;18.77;;;-2.00;99.90;;;;;;5005769;28;20373;-64
2023/03/03 05:34:15;;;;;;;40.22;19.00;;;-2.00;99.90;;;;;;5007250;28;20100;-63
2023/03/03 05:36:41;;;;;;;35.15;18.50;;;-2.00;99.90;;;;;;4961761;28;20088;-63
2023/03/03 05:39:07;;;;;;;39.10;18.83;;;-2.30;99.90;;;;;;4979990;28;20058;-61
2023/03/03 05:41:35;;;;;;;40.40;20.75;;;-2.00;99.90;;;;;;4992034;28;20718;-63
2023/03/03 05:44:02;;;;;;;36.05;18.83;;;-2.00;99.90;;;;;;5005740;28;20453;-64
2023/03/03 05:46:27;;;;;;;40.35;19.73;;;-2.00;99.90;;;;;;5008442;28;20085;-63
2023/03/03 05:48:53;;;;;;;39.17;18.60;;;-1.90;99.90;;;;;;4973188;28;20524;-64
2023/03/03 05:51:19;;;;;;;35.95;18.17;;;-2.00;99.90;;;;;;4989887;28;20622;-63
2023/03/03 05:53:45;;;;;;;35.05;18.35;;;-2.30;99.90;;;;;;4975074;28;20038;-63
2023/03/03 05:56:10;;;;;;;38.05;18.90;;;-2.20;99.90;;;;;;4976696;28;20678;-64
2023/03/03 05:58:36;;;;;;;41.50;18.88;;;-2.20;99.90;;;;;;4991380;28;20048;-63
2023/03/03 06:01:02;;;;;;;35.38;18.30;;;-2.30;99.90;;;;;;4993061;28;20046;-63
2023/03/03 06:03:27;;;;;;;35.92;18.10;;;-2.10;99.90;;;;;;5005893;28;20137;-63
2023/03/03 06:05:53;;;;;;;32.22;18.48;;;-2.20;99.90;;;;;;5006272;28;20053;-63
2023/03/03 06:08:19;;;;;;;36.83;18.83;;;-2.00;99.90;;;;;;4974883;28;20471;-62
2023/03/03 06:10:45;;;;;;;31.70;17.02;;;-2.40;99.90;;;;;;5007880;28;20038;-63
2023/03/03 06:13:11;;;;;;;35.28;17.98;;;-2.00;99.90;;;;;;4978525;28;20676;-64
2023/03/03 06:15:36;;;;;;;31.50;17.30;;;-2.00;99.90;;;;;;4991275;28;20306;-65
2023/03/03 06:18:02;;;;;;;36.33;19.05;;;-2.00;99.90;;;;;;4976021;28;20038;-64
2023/03/03 06:20:28;;;;;;;37.03;19.30;;;-2.20;99.90;;;;;;4974807;28;20289;-64
2023/03/03 06:22:54;;;;;;;33.45;18.02;;;-2.20;99.90;;;;;;5005386;28;20100;-63
2023/03/03 06:25:20;;;;;;;38.47;18.88;;;-1.90;99.90;;;;;;4974086;28;20132;-62
2023/03/03 06:27:45;;;;;;;37.22;19.33;;;-2.20;99.90;;;;;;5006005;28;20483;-65
2023/03/03 06:30:12;;;;;;;41.90;19.60;;;-2.20;99.90;;;;;;4974302;28;20042;-63
2023/03/03 06:32:38;;;;;;;35.72;20.27;;;-2.00;99.90;;;;;;4974742;28;20045;-63
2023/03/03 06:35:04;;;;;;;34.88;19.30;;;-2.10;99.90;;;;;;4976426;28;20049;-65
2023/03/03 06:37:30;;;;;;;39.08;20.45;;;-2.20;99.90;;;;;;4976210;28;20083;-64
2023/03/03 06:39:55;;;;;;;36.85;20.10;;;-2.10;99.90;;;;;;4982100;28;20050;-64
2023/03/03 06:42:23;;;;;;;41.83;20.63;;;-1.80;99.90;;;;;;4963171;28;20206;-63
2023/03/03 06:44:49;;;;;;;41.03;22.08;;;-2.00;99.90;;;;;;4982859;28;20113;-64
2023/03/03 06:47:15;;;;;;;43.70;21.27;;;-1.90;99.90;;;;;;4996945;28;20077;-65
2023/03/03 06:49:41;;;;;;;43.92;21.58;;;-1.40;99.90;;;;;;4981002;28;20124;-63
2023/03/03 06:52:18;;;;;;;44.78;23.35;;;-1.40;99.90;;;;;;5009942;28;20042;-64
2023/03/03 06:54:46;;;;;;;48.65;24.35;;;-1.00;99.90;;;;;;4978213;28;20330;-63
2023/03/03 06:57:27;;;;;;;49.90;24.95;;;-0.80;99.90;;;;;;4976874;28;20382;-64
2023/03/03 06:59:57;;;;;;;50.28;23.75;;;-0.70;99.90;;;;;;4995621;28;20229;-64
2023/03/03 07:02:22;;;;;;;48.38;23.85;;;-0.60;99.90;;;;;;5011226;28;20042;-64
2023/03/03 07:04:49;;;;;;;43.13;22.75;;;-0.60;99.90;;;;;;4977896;28;20038;-64
2023/03/03 07:07:20;;;;;;;48.60;24.13;;;-0.80;99.90;;;;;;5008708;28;20046;-64
2023/03/03 07:09:54;;;;;;;45.88;24.55;;;-0.60;99.90;;;;;;4978836;28;20054;-65
2023/03/03 07:12:28;;;;;;;48.30;24.08;;;-0.20;99.90;;;;;;4994221;28;20046;-64
2023/03/03 07:15:15;;;;;;;46.92;24.05;;;-0.20;99.90;;;;;;5012660;28;20101;-62
2023/03/03 07:17:44;;;;;;;45.80;23.65;;;-0.20;99.90;;;;;;5014238;28;20052;-63
2023/03/03 07:20:21;;;;;;;43.22;23.45;;;-0.20;99.90;;;;;;4981742;28;20035;-64
2023/03/03 07:22:47;;;;;;;43.10;23.45;;;0.00;99.90;;;;;;4991838;28;20055;-62
2023/03/03 07:25:26;;;;;;;40.40;22.60;;;0.00;99.90;;;;;;4980449;28;20057;-64
2023/03/03 07:27:57;;;;;;;41.35;21.70;;;-0.30;99.90;;;;;;4979422;28;20702;-64
2023/03/03 07:30:28;;;;;;;41.33;22.25;;;0.10;99.90;;;;;;4980602;28;20479;-62
2023/03/03 07:32:57;;;;;;;42.72;23.08;;;-0.10;99.90;;;;;;4979014;28;20133;-63
2023/03/03 07:35:35;;;;;;;48.60;24.60;;;0.30;99.90;;;;;;4994039;28;20419;-64
2023/03/03 07:38:02;;;;;;;37.22;21.80;;;0.40;99.90;;;;;;4976897;28;20229;-65
2023/03/03 07:40:35;;;;;;;43.40;23.67;;;0.40;99.90;;;;;;4975092;28;20077;-64
2023/03/03 07:43:21;;;;;;;48.00;24.83;;;0.30;99.90;;;;;;4991902;28;20046;-64
2023/03/03 07:45:46;;;;;;;41.05;22.02;;;0.40;99.90;;;;;;4979394;28;20527;-64
2023/03/03 07:48:12;;;;;;;38.90;20.83;;;0.30;99.90;;;;;;4995635;28;20152;-64
2023/03/03 07:50:39;;;;;;;33.35;20.25;;;0.60;99.90;;;;;;4979208;28;20116;-65
2023/03/03 07:53:19;;;;;;;34.00;20.35;;;0.80;99.90;;;;;;4976280;28;20386;-63
2023/03/03 07:55:45;;;;;;;38.63;20.63;;;0.70;99.90;;;;;;5009935;28;20084;-63
2023/03/03 07:58:14;;;;;;;35.70;20.42;;;0.70;1.00;;;;;;5010988;28;20038;-63
2023/03/03 08:00:52;;;;;;;36.58;20.23;;;1.00;1.00;;;;;;4979912;28;20042;-63
2023/03/03 08:03:19;;;;;;;36.75;20.88;;;0.80;1.00;;;;;;4979555;28;20285;-65
2023/03/03 08:05:50;;;;;;;37.10;20.90;;;0.90;1.00;;;;;;4977619;28;20135;-65
2023/03/03 08:08:35;;;;;;;32.92;17.30;;;1.20;1.00;;;;;;4991037;28;20034;-63
2023/03/03 08:11:03;;;;;;;31.90;17.55;;;1.80;1.00;;;;;;4996047;28;20042;-63
2023/03/03 08:13:33;;;;;;;31.88;19.35;;;2.00;1.00;;;;;;5012370;28;20058;-63
2023/03/03 08:16:17;;;;;;;28.70;17.00;;;2.10;18.60;;;;;;4976496;28;20381;-65
2023/03/03 08:18:48;;;;;;;29.60;17.73;;;2.40;69.80;;;;;;4979541;28;20126;-63
2023/03/03 08:21:40;;;;;;;24.33;15.60;;;2.30;96.10;;;;;;4981115;28;20528;-62
2023/03/03 08:24:05;;;;;;;26.73;15.40;;;2.60;96.10;;;;;;5009901;28;20041;-63
2023/03/03 08:26:31;;;;;;;22.75;15.02;;;2.40;99.90;;;;;;4993838;28;20042;-62
2023/03/03 08:28:57;;;;;;;21.35;13.88;;;2.70;99.90;;;;;;4992706;28;20045;-63
2023/03/03 08:31:23;;;;;;;24.52;13.57;;;2.90;81.60;;;;;;4977907;28;20074;-63
2023/03/03 08:33:48;;;;;;;24.30;13.10;;;2.80;82.10;;;;;;4977449;28;20038;-63
2023/03/03 08:36:14;;;;;;;21.77;13.85;;;2.80;90.80;;;;;;4974276;28;20038;-63
2023/03/03 08:38:40;;;;;;;19.92;12.38;;;2.80;82.10;;;;;;4978687;28;20034;-63
2023/03/03 08:41:06;;;;;;;16.17;11.95;;;2.60;96.20;;;;;;4978008;28;20220;-62
2023/03/03 08:43:31;;;;;;;22.05;13.73;;;2.90;96.00;;;;;;4992352;28;20457;-64
2023/03/03 08:45:59;;;;;;;20.85;12.32;;;2.80;98.90;;;;;;4984652;28;20053;-63
2023/03/03 08:48:26;;;;;;;18.65;10.57;;;2.60;99.90;;;;;;5007947;28;20041;-65
2023/03/03 08:50:52;;;;;;;15.70;11.38;;;2.80;99.90;;;;;;4977824;28;20034;-64
2023/03/03 08:53:19;;;;;;;14.85;11.20;;;2.80;99.90;;;;;;4992808;28;20341;-64
2023/03/03 08:55:45;;;;;;;16.98;11.32;;;3.00;99.90;;;;;;5007835;28;20053;-64
2023/03/03 08:58:11;;;;;;;16.38;10.93;;;3.10;99.90;;;;;;4955358;28;20042;-65
2023/03/03 09:00:37;;;;;;;17.90;12.27;;;2.70;99.90;;;;;;4991027;28;20085;-63
2023/03/03 09:03:06;;;;;;;20.00;11.55;;;2.80;99.90;;;;;;4956075;28;20555;-63
2023/03/03 09:05:33;;;;;;;21.08;11.75;;;3.20;99.90;;;;;;4990512;28;20049;-64
2023/03/03 09:07:59;;;;;;;21.77;11.75;;;3.30;99.90;;;;;;4973568;28;20951;-64
2023/03/03 09:10:28;;;;;;;17.67;10.13;;;3.30;99.90;;;;;;4982000;28;20049;-63
2023/03/03 09:12:57;;;;;;;14.68;9.63;;;3.40;99.90;;;;;;4991422;28;20135;-64
2023/03/03 09:15:27;;;;;;;16.75;10.32;;;3.40;99.90;;;;;;4990844;28;20263;-64
2023/03/03 09:17:56;;;;;;;20.27;10.68;;;3.80;99.90;;;;;;4991442;28;20073;-63
2023/03/03 09:20:39;;;;;;;14.00;9.15;;;3.70;99.90;;;;;;5009846;28;20121;-64
2023/03/03 09:23:26;;;;;;;13.90;7.57;;;3.90;99.90;;;;;;4973668;28;20050;-65
2023/03/03 09:25:52;;;;;;;16.15;8.40;;;3.90;99.90;;;;;;4977540;28;20034;-65
2023/03/03 09:28:25;;;;;;;11.73;7.95;;;4.10;99.90;;;;;;4976019;28;20053;-64
2023/03/03 09:30:52;;;;;;;14.77;8.23;;;4.40;99.90;;;;;;4976627;28;20104;-64
2023/03/03 09:33:25;;;;;;;12.18;7.70;;;4.50;99.90;;;;;;4993759;28;20045;-64
2023/03/03 09:36:04;;;;;;;11.93;7.82;;;4.40;99.90;;;;;;4976201;28;20159;-64
2023/03/03 09:38:32;;;;;;;16.77;7.72;;;4.60;99.90;;;;;;4973696;28;20042;-64
2023/03/03 09:41:36;;;;;;;13.57;7.35;;;4.60;99.90;;;;;;5006422;28;20034;-62
2023/03/03 09:44:04;;;;;;;12.13;6.93;;;4.90;99.90;;;;;;4975147;28;20463;-64
2023/03/03 09:46:45;;;;;;;13.93;6.70;;;5.10;99.90;;;;;;5005917;28;21001;-64
2023/03/03 09:49:25;;;;;;;10.32;5.88;;;5.70;99.90;;;;;;5006974;28;20486;-63
2023/03/03 09:52:01;;;;;;;12.27;6.30;;;6.20;99.90;;;;;;4974418;28;20082;-63
2023/03/03 09:54:40;;;;;;;11.43;5.85;;;6.20;99.90;;;;;;4989523;28;20137;-63
2023/03/03 09:57:21;;;;;;;11.05;5.38;;;6.40;99.90;;;;;;4975963;28;20050;-62
2023/03/03 10:00:03;;;;;;;8.38;4.93;;;6.40;99.90;;;;;;5007062;28;20038;-65
2023/03/03 10:03:07;;;;;;;8.48;4.72;;;6.30;99.90;;;;;;4974036;28;20058;-63
2023/03/03 10:05:57;;;;;;;10.93;4.25;;;6.60;99.90;;;;;;5006425;28;20092;-64
2023/03/03 10:08:57;;;;;;;8.95;4.50;;;6.80;45.80;;;;;;4977434;28;20069;-63
2023/03/03 10:11:34;;;;;;;5.90;2.00;;;7.10;99.90;;;;;;4974840;28;20051;-63
2023/03/03 10:14:33;;;;;;;3.28;0.52;;;7.30;1.00;;;;;;4990556;28;20057;-63
2023/03/03 10:17:17;;;;;;;5.95;0.45;;;7.20;1.00;;;;;;5013030;28;20054;-62
2023/03/03 10:20:05;;;;;;;4.03;0.30;;;7.30;99.90;;;;;;4982174;28;20058;-63
2023/03/03 10:22:52;;;;;;;3.45;0.30;;;7.40;99.90;;;;;;4977950;28;20128;-62
2023/03/03 10:25:36;;;;;;;3.40;0.20;;;7.40;99.90;;;;;;4978237;28;20042;-62
2023/03/03 10:28:08;;;;;;;4.95;0.50;;;7.50;99.90;;;;;;4978914;28;20034;-63
2023/03/03 10:31:03;;;;;;;3.90;0.40;;;7.50;99.90;;;;;;4978883;28;20046;-63
2023/03/03 10:33:39;;;;;;;2.92;0.30;;;7.60;99.90;;;;;;4994046;28;20050;-63
2023/03/03 10:36:05;;;;;;;3.35;0.20;;;7.80;99.90;;;;;;4977394;28;20111;-62
2023/03/03 10:38:41;;;;;;;2.35;0.30;;;7.90;99.90;;;;;;4977406;28;20034;-62
2023/03/03 10:41:09;;;;;;;5.68;0.28;;;8.30;99.90;;;;;;5010784;28;20041;-62
2023/03/03 10:44:31;;;;;;;1.98;0.20;;;8.70;99.90;;;;;;4979711;28;20116;-62
2023/03/03 10:47:21;;;;;;;2.25;0.20;;;8.60;99.90;;;;;;4992136;28;20092;-63
2023/03/03 10:50:14;;;;;;;1.65;0.10;;;8.40;99.90;;;;;;4992780;28;20544;-63
2023/03/03 10:53:00;;;;;;;1.77;0.10;;;8.50;99.90;;;;;;4993235;28;20582;-65
2023/03/03 10:55:50;;;;;;;2.28;0.10;;;8.20;99.90;;;;;;4996824;28;20155;-65
2023/03/03 10:58:24;;;;;;;5.45;0.30;;;8.10;99.90;;;;;;4993839;28;20464;-63
2023/03/03 11:00:59;;;;;;;1.90;0.20;;;8.00;99.90;;;;;;4993545;28;20038;-64
2023/03/03 11:03:49;;;;;;;4.28;0.30;;;7.90;99.90;;;;;;4976346;28;20073;-64
2023/03/03 11:06:25;;;;;;;3.53;0.28;;;7.90;99.90;;;;;;5009614;28;20034;-64
2023/03/03 11:09:15;;;;;;;4.00;0.20;;;7.70;99.90;;;;;;4979972;28;20038;-62
2023/03/03 11:12:00;;;;;;;3.00;0.30;;;7.60;99.90;;;;;;4993079;28;20050;-64
2023/03/03 11:14:58;;;;;;;4.32;0.40;;;7.50;99.90;;;;;;4980079;28;20042;-63
2023/03/03 11:17:42;;;;;;;3.33;0.40;;;7.50;99.90;;;;;;5011587;28;20540;-64
2023/03/03 11:20:43;;;;;;;5.88;0.30;;;7.60;99.90;;;;;;5010194;28;20060;-64
2023/03/03 11:23:31;;;;;;;2.88;0.20;;;7.40;99.90;;;;;;4975856;28;20046;-63
2023/03/03 11:26:17;;;;;;;3.17;0.30;;;7.40;99.90;;;;;;4995596;28;20245;-65
2023/03/03 11:29:26;;;;;;;3.75;0.20;;;7.30;99.90;;;;;;5009483;28;20053;-64
2023/03/03 11:32:23;;;;;;;6.15;0.50;;;7.40;99.90;;;;;;5008300;28;20523;-66
2023/03/03 11:34:51;;;;;;;3.42;0.38;;;7.40;99.90;;;;;;5010296;28;20041;-65
2023/03/03 11:37:26;;;;;;;3.17;0.40;;;7.90;99.90;;;;;;5009158;28;20273;-63
2023/03/03 11:39:55;;;;;;;5.45;0.32;;;8.20;99.90;;;;;;5009842;28;20555;-65
2023/03/03 11:42:49;;;;;;;7.60;0.60;;;8.40;99.90;;;;;;4994074;28;20046;-65
2023/03/03 11:45:19;;;;;;;5.15;0.30;;;8.70;99.90;;;;;;5008318;28;20325;-65
2023/03/03 11:48:11;;;;;;;4.45;0.50;;;8.60;99.90;;;;;;4992013;28;20129;-65
2023/03/03 11:51:13;;;;;;;4.13;0.20;;;8.40;4.80;;;;;;4976795;28;20247;-65
2023/03/03 11:54:00;;;;;;;4.22;0.40;;;8.50;94.40;;;;;;4978529;28;20046;-64
2023/03/03 11:56:44;;;;;;;5.18;0.30;;;8.60;99.90;;;;;;4975650;28;20070;-65
2023/03/03 11:59:32;;;;;;;5.78;0.60;;;9.10;61.80;;;;;;4993639;28;20030;-64
2023/03/03 12:02:35;;;;;;;3.42;0.30;;;9.00;1.00;;;;;;4974978;28;20476;-66
2023/03/03 12:05:34;;;;;;;5.47;0.50;;;9.00;1.00;;;;;;4975626;28;20042;-63
2023/03/03 12:08:26;;;;;;;4.88;0.40;;;8.60;28.00;;;;;;4984654;28;20062;-65
2023/03/03 12:11:54;;;;;;;3.28;0.30;;;8.50;1.00;;;;;;4977485;28;20046;-63
2023/03/03 12:14:29;;;;;;;4.80;0.30;;;9.20;84.40;;;;;;4983100;28;20051;-64
2023/03/03 12:16:58;;;;;;;4.07;0.30;;;9.30;1.00;;;;;;4956485;28;20206;-64
2023/03/03 12:19:28;;;;;;;5.68;0.30;;;9.10;1.00;;;;;;5001575;28;20050;-63
2023/03/03 12:22:30;;;;;;;3.92;0.38;;;9.60;1.00;;;;;;5008889;28;20548;-63
2023/03/03 12:25:08;;;;;;;7.95;0.40;;;10.40;1.00;;;;;;5010232;28;20042;-63
2023/03/03 12:27:47;;;;;;;5.03;0.43;;;10.20;99.90;;;;;;4976485;28;20212;-63
2023/03/03 12:30:40;;;;;;;3.63;0.43;;;10.10;1.00;;;;;;4975168;28;20546;-65
2023/03/03 12:33:36;;;;;;;9.25;0.57;;;9.70;1.00;;;;;;4991221;28;20355;-64
2023/03/03 12:36:26;;;;;;;5.30;0.50;;;9.50;1.00;;;;;;5007508;28;20092;-65
2023/03/03 12:39:01;;;;;;;5.38;0.40;;;9.10;1.00;;;;;;5006456;28;20049;-65
2023/03/03 12:41:33;;;;;;;6.60;0.52;;;8.90;1.00;;;;;;4976504;28;20579;-65
2023/03/03 12:44:28;;;;;;;5.45;0.50;;;8.80;1.00;;;;;;4975241;28;20042;-64
2023/03/03 12:47:12;;;;;;;5.63;0.25;;;8.60;1.00;;;;;;4991110;28;20085;-63
2023/03/03 12:49:54;;;;;;;4.15;0.40;;;8.50;1.00;;;;;;4977016;28;20042;-63
2023/03/03 12:52:32;;;;;;;5.40;0.50;;;8.90;7.50;;;;;;4976420;28;20054;-64
2023/03/03 12:55:37;;;;;;;4.65;0.60;;;9.30;1.00;;;;;;4977932;28;20069;-63
2023/03/03 12:58:38;;;;;;;7.00;0.43;;;9.30;1.00;;;;;;4975205;28;20158;-62
2023/03/03 13:01:12;;;;;;;8.13;0.70;;;9.10;1.00;;;;;;4987368;28;20088;-63
2023/03/03 13:04:03;;;;;;;10.02;0.68;;;8.80;1.00;;;;;;4987829;28;20265;-63
2023/03/03 13:06:39;;;;;;;10.73;1.15;;;9.30;1.00;;;;;;4977725;28;20038;-63